Flight Track Log - Related Links

Times and Time Zones

All times are in EST time to prevent confusion due to time zone crossing. See the N965MR flight status page for this flight to view local times or setup timezone preferences in your user account.

Time Position Orientation Groundspeed Altitude Reporting Facility
EST Latitude Longitude Course Direction KTS MPH feet Rate Location/Type
Fri 11:57:27 AM 38.3592 -76.5344 38° Northeast 148 170 2,400  Level Washington Center
Fri 11:58:27 AM 38.3908 -76.5031 38° Northeast 147 169 3,900 1,261 Climbing Washington Center
Fri 11:59:26 AM 38.4286 -76.4717 33° Northeast 157 181 4,900 504 Climbing Washington Center
Fri 12:00:26 PM 38.4747 -76.4350 32° Northeast 191 220 4,900 36 Level Washington Center
Fri 12:02:11 PM 38.5500 -76.3667 35° Northeast 182 209 5,000  Climbing Potomac TRACON
Fri 12:03:11 PM 38.5833 -76.3333 38° Northeast 183 211 4,900 417 Descending Potomac TRACON
Fri 12:04:06 PM 38.6167 -76.3000 38° Northeast 166 191 5,800 595 Climbing Potomac TRACON
Fri 12:05:12 PM 38.6667 -76.3000 360° North 167 192 6,100 95 Climbing Potomac TRACON
Fri 12:06:12 PM 38.7167 -76.3167 345° North 173 199 6,000 -50 Descending Potomac TRACON
Fri 12:07:12 PM 38.7667 -76.3167 360° North 177 204 6,000  Level Potomac TRACON
Fri 12:08:06 PM 38.8167 -76.3167 360° North 174 200 6,000  Level Potomac TRACON
Fri 12:09:12 PM 38.8667 -76.3167 360° North 173 199 6,000  Level Potomac TRACON
Fri 12:10:06 PM 38.9000 -76.3333 339° North 172 198 6,000  Level Potomac TRACON
Fri 12:11:06 PM 38.9500 -76.3500 345° North 171 197 6,000  Level Potomac TRACON
Fri 12:12:12 PM 38.9833 -76.3833 322° Northwest 169 194 6,000  Level Potomac TRACON
Fri 12:13:07 PM 39.0167 -76.4167 322° Northwest 164 189 6,000  Level Potomac TRACON
Fri 12:14:07 PM 39.0667 -76.4500 333° Northwest 161 185 6,000  Level Potomac TRACON
Fri 12:15:07 PM 39.0833 -76.5000 293° West 160 184 6,000  Level Potomac TRACON
Fri 12:16:07 PM 39.1000 -76.5500 293° West 165 190 6,000  Level Potomac TRACON
Fri 12:17:07 PM 39.1000 -76.6167 270° West 166 191 6,000  Level Potomac TRACON
Fri 12:18:07 PM 39.1000 -76.6667 270° West 162 186 6,000  Level Potomac TRACON
Fri 12:19:07 PM 39.1167 -76.7167 293° West 171 197 6,000 -52 Level Potomac TRACON
Fri 12:20:02 PM 39.1167 -76.7833 270° West 170 196 5,900 -298 Descending Potomac TRACON
Fri 12:21:08 PM 39.1333 -76.8500 288° West 160 184 5,400 -619 Descending Potomac TRACON
Fri 12:22:08 PM 39.1333 -76.9000 270° West 153 176 4,600 -850 Descending Potomac TRACON
Fri 12:23:08 PM 39.1500 -76.9500 293° West 160 184 3,700 -737 Descending Potomac TRACON
Fri 12:24:02 PM 39.1500 -77.0000 270° West 163 188 3,200 -684 Descending Potomac TRACON
Fri 12:25:02 PM 39.1333 -77.0500 247° West 154 177 2,400 -810 Descending Potomac TRACON
Fri 12:26:08 PM 39.1333 -77.1167 270° West 152 175 1,500 -818 Descending Potomac TRACON
Fri 12:28:00 PM 39.1667 -77.1500 270° West  Level FlightAware Approximate
Fri 12:35:00 PM 39.1683 -77.1660 270° West  Level Estimated
Fri 12:36:00 PM 39.1683 -77.1660 270° West  Level Estimated

Login

Don't have an account? Register now (free) for customized features, flight alerts, and more!